Time;durP1;ratioP1;P1;durP2;ratioP2;P2;SDS_P1;SDS_P2;PMS_P1;PMS_P2;Temp;Humidity;BMP_temperature;BMP_pressure;BME280_temperature;BME280_humidity;BME280_pressure;Samples;Min_cycle;Max_cycle;Signal;HPM_P1;HPM_P2
2023/09/23 00:01:05;;;;;;;1.43;0.87;;;19.80;67.00;;;;;;5008812;28;20540;-49
2023/09/23 00:03:34;;;;;;;1.47;0.70;;;19.80;67.30;;;;;;5010763;28;20483;-49
2023/09/23 00:06:03;;;;;;;2.00;0.80;;;19.70;67.00;;;;;;5004244;28;20535;-49
2023/09/23 00:08:31;;;;;;;1.57;0.83;;;19.70;67.10;;;;;;5012403;28;20453;-49
2023/09/23 00:11:02;;;;;;;0.77;0.53;;;19.80;67.10;;;;;;5008878;28;20504;-49
2023/09/23 00:13:32;;;;;;;1.87;0.60;;;19.70;67.00;;;;;;5011197;28;20475;-49
2023/09/23 00:16:03;;;;;;;1.80;0.90;;;19.70;66.80;;;;;;5010120;28;20445;-49
2023/09/23 00:18:32;;;;;;;1.47;0.70;;;19.70;67.00;;;;;;5009968;28;20459;-49
2023/09/23 00:21:02;;;;;;;1.17;0.60;;;19.70;66.80;;;;;;5006065;28;20449;-49
2023/09/23 00:23:30;;;;;;;1.07;0.60;;;19.70;66.80;;;;;;5010701;28;20547;-49
2023/09/23 00:26:00;;;;;;;0.97;0.60;;;19.70;66.50;;;;;;5011530;28;20821;-50
2023/09/23 00:28:30;;;;;;;2.70;0.80;;;19.70;66.70;;;;;;5005584;28;20468;-49
2023/09/23 00:31:11;;;;;;;0.90;0.50;;;19.70;66.90;;;;;;5010788;28;20426;-49
2023/09/23 00:33:40;;;;;;;0.97;0.63;;;19.70;66.80;;;;;;4995157;28;20513;-51
2023/09/23 00:36:09;;;;;;;1.50;0.90;;;19.70;67.00;;;;;;5002399;28;20532;-49
2023/09/23 00:38:38;;;;;;;1.23;0.80;;;19.70;68.20;;;;;;5009324;28;20456;-49
2023/09/23 00:41:09;;;;;;;3.03;1.00;;;19.70;66.70;;;;;;5016179;28;20469;-50
2023/09/23 00:43:37;;;;;;;1.47;0.80;;;19.70;66.70;;;;;;5013300;28;20870;-49
2023/09/23 00:46:06;;;;;;;1.00;0.40;;;19.60;66.80;;;;;;5012518;28;20480;-50
2023/09/23 00:48:38;;;;;;;1.17;0.60;;;19.60;66.60;;;;;;4993791;28;20849;-49
2023/09/23 00:51:08;;;;;;;0.80;0.50;;;19.60;66.60;;;;;;4990417;28;20449;-49
2023/09/23 00:53:39;;;;;;;1.77;0.80;;;19.60;66.80;;;;;;4993647;28;20977;-49
2023/09/23 00:56:10;;;;;;;1.50;0.60;;;19.60;66.80;;;;;;4997510;28;21206;-49
2023/09/23 00:58:42;;;;;;;1.10;0.60;;;19.60;66.70;;;;;;5008485;28;20526;-49
2023/09/23 01:01:14;;;;;;;0.90;0.63;;;19.60;67.00;;;;;;5014330;28;20445;-49
2023/09/23 01:03:42;;;;;;;1.33;0.50;;;19.60;66.90;;;;;;5010448;28;20467;-49
2023/09/23 01:06:15;;;;;;;1.57;0.70;;;19.60;66.80;;;;;;5009852;28;20527;-49
2023/09/23 01:08:47;;;;;;;1.60;0.80;;;19.60;66.70;;;;;;5016435;28;20538;-49
2023/09/23 01:11:18;;;;;;;3.23;0.70;;;19.60;66.30;;;;;;5014716;28;20483;-49
2023/09/23 01:13:50;;;;;;;1.60;0.90;;;19.60;66.80;;;;;;4998245;28;20500;-49
2023/09/23 01:16:18;;;;;;;2.13;0.80;;;19.60;67.80;;;;;;5010448;28;20523;-49
2023/09/23 01:18:49;;;;;;;1.47;0.60;;;19.60;66.80;;;;;;5020058;28;20463;-49
2023/09/23 01:21:18;;;;;;;1.10;0.70;;;19.60;66.80;;;;;;5012596;28;20865;-49
2023/09/23 01:23:48;;;;;;;1.13;0.60;;;19.60;66.30;;;;;;5017017;28;20989;-49
2023/09/23 01:26:16;;;;;;;1.30;0.60;;;19.60;66.60;;;;;;4990199;28;20456;-49
2023/09/23 01:28:45;;;;;;;1.27;0.77;;;19.60;66.50;;;;;;4991913;28;20469;-49
2023/09/23 01:31:14;;;;;;;1.50;0.67;;;19.60;66.80;;;;;;5011812;28;20444;-49
2023/09/23 01:33:44;;;;;;;1.30;0.80;;;19.50;66.80;;;;;;5017362;28;20468;-49
2023/09/23 01:36:12;;;;;;;1.40;0.77;;;19.60;66.30;;;;;;5006611;28;20440;-48
2023/09/23 01:38:41;;;;;;;1.63;0.60;;;19.60;66.80;;;;;;5018053;28;21006;-49
2023/09/23 01:41:11;;;;;;;1.83;0.80;;;19.50;66.20;;;;;;5015048;28;21012;-49
2023/09/23 01:43:39;;;;;;;2.07;0.73;;;19.50;66.30;;;;;;5011538;28;21000;-49
2023/09/23 01:46:07;;;;;;;2.30;0.70;;;19.50;66.40;;;;;;4996664;28;20514;-49
2023/09/23 01:48:36;;;;;;;1.00;0.53;;;19.50;66.60;;;;;;5019288;28;20460;-49
2023/09/23 01:51:06;;;;;;;1.20;0.70;;;19.50;66.70;;;;;;5005763;28;20444;-49
2023/09/23 01:53:34;;;;;;;1.73;0.70;;;19.50;66.60;;;;;;5017823;28;21040;-49
2023/09/23 01:56:03;;;;;;;1.17;0.73;;;19.50;66.50;;;;;;5001511;28;20449;-49
2023/09/23 01:58:32;;;;;;;1.27;0.80;;;19.50;66.70;;;;;;4999168;28;20487;-49
2023/09/23 02:01:04;;;;;;;1.50;0.60;;;19.50;66.60;;;;;;5006020;28;20437;-49
2023/09/23 02:03:33;;;;;;;2.80;1.03;;;19.50;66.40;;;;;;5017176;28;20487;-49
2023/09/23 02:06:03;;;;;;;1.13;0.70;;;19.50;66.20;;;;;;4998745;28;20443;-49
2023/09/23 02:08:31;;;;;;;1.93;0.80;;;19.50;66.10;;;;;;5001215;28;20476;-49
2023/09/23 02:11:00;;;;;;;2.10;0.60;;;19.50;66.50;;;;;;5001209;28;20941;-49
2023/09/23 02:13:28;;;;;;;0.97;0.50;;;19.50;66.20;;;;;;5016994;28;20599;-49
2023/09/23 02:15:59;;;;;;;3.43;0.70;;;19.50;66.30;;;;;;5025747;28;20424;-49
2023/09/23 02:18:27;;;;;;;1.10;0.83;;;19.40;66.20;;;;;;5021183;28;20500;-49
2023/09/23 02:20:56;;;;;;;1.73;0.70;;;19.40;66.10;;;;;;5018650;28;20449;-49
2023/09/23 02:23:24;;;;;;;1.87;0.70;;;19.50;66.20;;;;;;4999646;28;20472;-49
2023/09/23 02:25:52;;;;;;;2.00;1.27;;;19.40;66.10;;;;;;5023315;28;20472;-49
2023/09/23 02:28:21;;;;;;;1.00;0.40;;;19.40;66.30;;;;;;5015561;28;20460;-49
2023/09/23 02:30:52;;;;;;;1.80;0.60;;;19.40;66.30;;;;;;5017231;28;20433;-49
2023/09/23 02:33:24;;;;;;;1.30;0.70;;;19.40;66.30;;;;;;4998780;28;20459;-49
2023/09/23 02:35:52;;;;;;;1.60;0.83;;;19.40;66.10;;;;;;5014357;28;20444;-49
2023/09/23 02:38:22;;;;;;;2.23;0.93;;;19.40;66.20;;;;;;5019100;28;20452;-49
2023/09/23 02:40:50;;;;;;;2.13;0.87;;;19.40;65.60;;;;;;5017918;28;20437;-49
2023/09/23 02:43:19;;;;;;;1.60;0.93;;;19.40;66.20;;;;;;4998854;28;20851;-49
2023/09/23 02:45:49;;;;;;;1.50;0.90;;;19.40;66.20;;;;;;5000815;28;20440;-50
2023/09/23 02:48:17;;;;;;;2.10;0.50;;;19.40;66.10;;;;;;5015967;28;20453;-49
2023/09/23 02:50:47;;;;;;;1.73;0.67;;;19.40;65.80;;;;;;5014805;28;20470;-49
2023/09/23 02:53:15;;;;;;;1.00;0.70;;;19.40;65.90;;;;;;4995425;28;20462;-49
2023/09/23 02:55:51;;;;;;;1.77;0.77;;;19.40;66.10;;;;;;4993754;28;20459;-48
2023/09/23 02:58:21;;;;;;;1.77;0.63;;;19.40;66.40;;;;;;5014824;28;20819;-49
2023/09/23 03:00:57;;;;;;;2.87;0.87;;;19.40;66.30;;;;;;5018221;28;20456;-49
2023/09/23 03:03:27;;;;;;;1.27;0.60;;;19.40;66.40;;;;;;5014801;28;20962;-49
2023/09/23 03:06:02;;;;;;;1.20;0.70;;;19.40;66.20;;;;;;5012661;28;20861;-49
2023/09/23 03:08:30;;;;;;;1.10;0.60;;;19.40;66.30;;;;;;5018739;28;20504;-49
2023/09/23 03:11:02;;;;;;;1.90;0.60;;;19.40;66.20;;;;;;5020655;28;20440;-49
2023/09/23 03:13:31;;;;;;;1.50;0.70;;;19.40;66.40;;;;;;5015099;28;20469;-49
2023/09/23 03:16:08;;;;;;;1.57;0.63;;;19.40;66.30;;;;;;4994740;28;20464;-49
2023/09/23 03:18:44;;;;;;;1.10;0.50;;;19.40;66.30;;;;;;5017115;28;21077;-49
2023/09/23 03:21:15;;;;;;;1.00;0.67;;;19.40;66.40;;;;;;5012326;28;20493;-49
2023/09/23 03:23:43;;;;;;;1.10;0.80;;;19.40;66.20;;;;;;5014338;28;20465;-49
2023/09/23 03:26:11;;;;;;;1.33;0.80;;;19.40;66.10;;;;;;4993711;28;20447;-49
2023/09/23 03:28:40;;;;;;;1.40;0.70;;;19.30;65.90;;;;;;5015150;28;20467;-49
2023/09/23 03:31:09;;;;;;;0.93;0.60;;;19.30;66.20;;;;;;5001803;28;20514;-49
2023/09/23 03:33:44;;;;;;;1.30;0.67;;;19.40;65.90;;;;;;4997553;28;20516;-49
2023/09/23 03:36:20;;;;;;;1.10;0.57;;;19.30;66.10;;;;;;4993173;28;20452;-49
2023/09/23 03:38:49;;;;;;;1.50;0.60;;;19.30;66.20;;;;;;5013211;28;20570;-49
2023/09/23 03:41:17;;;;;;;2.87;0.60;;;19.30;66.20;;;;;;5013978;28;20543;-49
2023/09/23 03:43:45;;;;;;;2.03;0.63;;;19.30;65.80;;;;;;5012278;28;20993;-49
2023/09/23 03:46:15;;;;;;;6.20;1.23;;;19.30;66.10;;;;;;4995608;28;20495;-49
2023/09/23 03:48:44;;;;;;;1.00;0.60;;;19.30;66.00;;;;;;4997087;28;20573;-49
2023/09/23 03:51:14;;;;;;;1.03;0.60;;;19.30;66.20;;;;;;5012888;28;20563;-49
2023/09/23 03:53:45;;;;;;;2.07;0.83;;;19.30;65.90;;;;;;4997344;28;20488;-49
2023/09/23 03:56:13;;;;;;;1.53;0.87;;;19.30;66.20;;;;;;5015069;28;20429;-49
2023/09/23 03:58:43;;;;;;;1.50;0.77;;;19.30;66.30;;;;;;5012975;28;20491;-49
2023/09/23 04:01:13;;;;;;;1.23;0.67;;;19.20;65.80;;;;;;5015317;28;20468;-49
2023/09/23 04:03:43;;;;;;;1.10;0.60;;;19.20;66.20;;;;;;4994750;28;20500;-49
2023/09/23 04:06:12;;;;;;;2.40;0.60;;;19.20;66.10;;;;;;5010578;28;20448;-49
2023/09/23 04:08:40;;;;;;;1.73;0.60;;;19.20;66.30;;;;;;5012168;28;20478;-49
2023/09/23 04:11:15;;;;;;;2.93;0.80;;;19.20;66.20;;;;;;5015851;28;20430;-49
2023/09/23 04:13:44;;;;;;;1.03;0.40;;;19.20;66.20;;;;;;5012183;28;20546;-49
2023/09/23 04:16:13;;;;;;;1.73;0.80;;;19.20;66.00;;;;;;5013211;28;20436;-49
2023/09/23 04:18:41;;;;;;;1.50;0.50;;;19.20;66.10;;;;;;5014837;28;20467;-49
2023/09/23 04:21:10;;;;;;;1.10;0.80;;;19.20;65.70;;;;;;5012426;28;20441;-49
2023/09/23 04:23:39;;;;;;;1.20;0.70;;;19.20;65.80;;;;;;5015363;28;20468;-49
2023/09/23 04:26:08;;;;;;;2.07;0.57;;;19.20;65.80;;;;;;5014004;28;20512;-49
2023/09/23 04:28:38;;;;;;;0.80;0.50;;;19.20;66.30;;;;;;5008821;28;20480;-50
2023/09/23 04:31:06;;;;;;;1.60;0.90;;;19.20;66.00;;;;;;5013521;28;20472;-49
2023/09/23 04:33:34;;;;;;;1.27;0.60;;;19.20;66.00;;;;;;5011057;28;20468;-49
2023/09/23 04:36:05;;;;;;;2.00;1.03;;;19.20;66.30;;;;;;5006499;28;20940;-49
2023/09/23 04:38:33;;;;;;;0.90;0.50;;;19.20;66.30;;;;;;5010676;28;20456;-49
2023/09/23 04:41:02;;;;;;;0.80;0.60;;;19.20;66.30;;;;;;5012965;28;20904;-49
2023/09/23 04:43:30;;;;;;;1.90;0.83;;;19.10;65.90;;;;;;4989328;28;20461;-49
2023/09/23 04:46:00;;;;;;;1.43;0.60;;;19.10;65.90;;;;;;5009102;28;20441;-49
2023/09/23 04:48:30;;;;;;;1.63;0.70;;;19.20;66.20;;;;;;5009274;28;20459;-49
2023/09/23 04:50:59;;;;;;;0.80;0.43;;;19.20;66.30;;;;;;5004259;28;20480;-49
2023/09/23 04:53:28;;;;;;;1.50;0.60;;;19.10;66.30;;;;;;5008834;28;20540;-49
2023/09/23 04:55:58;;;;;;;1.30;0.57;;;19.20;66.40;;;;;;5010081;28;20433;-49
2023/09/23 04:58:26;;;;;;;1.10;0.50;;;19.10;66.30;;;;;;5004670;28;20518;-49
2023/09/23 05:00:55;;;;;;;1.10;0.47;;;19.20;66.30;;;;;;5008995;28;20449;-49
2023/09/23 05:03:24;;;;;;;2.00;0.70;;;19.10;66.30;;;;;;5009571;28;20469;-49
2023/09/23 05:05:52;;;;;;;1.20;0.47;;;19.10;66.00;;;;;;5007526;28;20456;-49
2023/09/23 05:08:21;;;;;;;1.20;0.77;;;19.10;66.00;;;;;;5008563;28;20447;-49
2023/09/23 05:10:49;;;;;;;1.47;0.60;;;19.10;66.10;;;;;;5007872;28;20500;-50
2023/09/23 05:13:17;;;;;;;1.00;0.60;;;19.10;66.10;;;;;;5007526;28;21110;-49
2023/09/23 05:15:46;;;;;;;1.00;0.70;;;19.10;65.90;;;;;;5008173;28;20513;-49
2023/09/23 05:18:14;;;;;;;1.87;1.00;;;19.00;66.10;;;;;;5007817;28;20445;-50
2023/09/23 05:20:47;;;;;;;1.93;0.70;;;19.10;66.20;;;;;;5005664;28;20805;-49
2023/09/23 05:23:16;;;;;;;1.87;0.70;;;19.10;66.10;;;;;;5014964;28;20460;-49
2023/09/23 05:25:45;;;;;;;1.43;0.60;;;19.00;65.70;;;;;;5023752;28;20428;-49
2023/09/23 05:28:13;;;;;;;1.40;0.97;;;19.00;65.90;;;;;;5023690;28;20478;-49
2023/09/23 05:30:41;;;;;;;1.30;0.90;;;19.00;66.10;;;;;;5012437;28;20469;-49
2023/09/23 05:33:10;;;;;;;1.73;0.70;;;19.00;66.00;;;;;;5011277;28;20488;-50
2023/09/23 05:35:39;;;;;;;1.53;0.70;;;19.00;66.20;;;;;;5012206;28;20444;-49
2023/09/23 05:38:09;;;;;;;1.30;0.60;;;19.00;66.10;;;;;;5011308;28;20435;-49
2023/09/23 05:40:37;;;;;;;1.20;0.57;;;19.00;66.00;;;;;;5020064;28;20939;-49
2023/09/23 05:43:06;;;;;;;4.93;1.23;;;19.00;66.10;;;;;;5021251;28;20483;-50
2023/09/23 05:45:37;;;;;;;3.13;0.80;;;19.00;65.70;;;;;;5017278;28;20540;-49
2023/09/23 05:48:06;;;;;;;2.20;0.90;;;19.00;65.80;;;;;;5019296;28;20429;-49
2023/09/23 05:50:35;;;;;;;1.20;0.70;;;19.00;65.80;;;;;;5011952;28;22940;-49
2023/09/23 05:53:04;;;;;;;2.47;1.00;;;19.00;66.00;;;;;;5019247;28;20456;-48
2023/09/23 05:55:34;;;;;;;1.20;0.70;;;19.00;65.70;;;;;;5021754;28;20455;-49
2023/09/23 05:58:02;;;;;;;2.50;0.60;;;19.00;66.00;;;;;;5019184;28;20466;-49
2023/09/23 06:00:30;;;;;;;2.07;0.70;;;18.90;65.80;;;;;;5029147;28;20483;-49
2023/09/23 06:02:58;;;;;;;1.30;0.90;;;19.00;66.00;;;;;;5024365;28;20467;-49
2023/09/23 06:05:27;;;;;;;2.60;0.80;;;19.00;66.10;;;;;;5014191;28;20483;-49
2023/09/23 06:07:56;;;;;;;1.43;0.73;;;18.90;66.00;;;;;;5015757;28;20437;-49
2023/09/23 06:10:24;;;;;;;1.20;0.70;;;18.90;66.10;;;;;;5021821;28;20475;-49
2023/09/23 06:12:54;;;;;;;1.60;0.77;;;18.90;66.00;;;;;;5030890;28;20439;-56
2023/09/23 06:15:24;;;;;;;1.23;0.70;;;18.90;66.00;;;;;;5026452;28;20452;-49
2023/09/23 06:17:52;;;;;;;1.13;0.80;;;18.90;65.80;;;;;;5032268;28;20436;-49
2023/09/23 06:20:20;;;;;;;1.30;0.87;;;18.90;66.00;;;;;;5027862;28;20468;-50
2023/09/23 06:22:48;;;;;;;5.87;1.20;;;18.90;66.20;;;;;;5030990;28;20525;-48
2023/09/23 06:25:17;;;;;;;1.40;0.70;;;18.90;66.00;;;;;;5007539;28;20468;-49
2023/09/23 06:27:46;;;;;;;0.80;0.50;;;18.90;66.20;;;;;;5004637;28;20976;-50
2023/09/23 06:30:15;;;;;;;1.20;0.70;;;18.90;66.30;;;;;;5004949;28;20492;-50
2023/09/23 06:32:47;;;;;;;1.30;0.70;;;18.90;65.90;;;;;;5006415;28;20459;-49
2023/09/23 06:35:15;;;;;;;1.00;0.60;;;18.90;66.10;;;;;;5022578;28;20483;-49
2023/09/23 06:37:44;;;;;;;2.33;0.70;;;18.90;66.00;;;;;;5033787;28;20424;-50
2023/09/23 06:40:12;;;;;;;1.33;0.67;;;18.90;66.10;;;;;;5033992;28;20478;-50
2023/09/23 06:42:40;;;;;;;1.93;0.60;;;18.90;66.30;;;;;;5029736;28;20459;-49
2023/09/23 06:45:09;;;;;;;1.00;0.60;;;18.80;66.30;;;;;;5032527;28;20463;-49
2023/09/23 06:47:38;;;;;;;1.13;0.60;;;18.90;66.40;;;;;;5034109;28;20432;-51
2023/09/23 06:50:08;;;;;;;1.33;0.70;;;18.80;66.00;;;;;;5028167;28;20493;-50
2023/09/23 06:52:36;;;;;;;2.50;0.90;;;18.90;66.40;;;;;;5022707;28;20502;-50
2023/09/23 06:55:05;;;;;;;2.70;0.60;;;18.90;66.20;;;;;;5028526;28;20852;-50
2023/09/23 06:57:35;;;;;;;1.00;0.60;;;18.80;66.20;;;;;;5020278;28;20503;-48
2023/09/23 07:00:06;;;;;;;1.10;0.70;;;18.80;66.20;;;;;;5026946;28;20467;-49
2023/09/23 07:02:34;;;;;;;1.27;0.60;;;18.90;66.60;;;;;;5023460;28;20451;-50
2023/09/23 07:05:03;;;;;;;1.33;0.77;;;18.80;66.30;;;;;;5023024;28;20475;-50
2023/09/23 07:07:33;;;;;;;1.93;1.10;;;18.90;66.30;;;;;;5028358;28;20442;-50
2023/09/23 07:10:01;;;;;;;1.40;0.80;;;18.80;66.00;;;;;;5032213;28;20470;-49
2023/09/23 07:12:29;;;;;;;1.27;0.60;;;18.80;66.10;;;;;;5034561;28;21018;-49
2023/09/23 07:14:58;;;;;;;3.30;1.07;;;18.80;66.00;;;;;;5027979;28;20462;-49
2023/09/23 07:17:27;;;;;;;1.30;0.80;;;18.80;66.10;;;;;;5030408;28;20439;-49
2023/09/23 07:19:56;;;;;;;2.43;1.00;;;18.80;66.50;;;;;;5029868;28;20514;-49
2023/09/23 07:22:24;;;;;;;2.03;0.80;;;18.80;66.20;;;;;;5034709;28;20507;-50
2023/09/23 07:24:54;;;;;;;2.30;0.80;;;18.80;66.20;;;;;;5034573;28;20546;-50
2023/09/23 07:27:24;;;;;;;2.77;0.67;;;18.80;66.30;;;;;;5025673;28;20488;-49
2023/09/23 07:29:52;;;;;;;1.17;0.70;;;18.80;66.20;;;;;;5025343;28;20488;-49
2023/09/23 07:32:20;;;;;;;2.67;0.80;;;18.80;66.10;;;;;;5027519;28;20995;-49
2023/09/23 07:34:48;;;;;;;1.00;0.70;;;18.80;65.90;;;;;;5023343;28;20471;-49
2023/09/23 07:37:17;;;;;;;1.40;0.70;;;18.80;66.40;;;;;;5022574;28;20533;-49
2023/09/23 07:39:45;;;;;;;1.70;1.03;;;18.80;66.20;;;;;;5028251;28;20494;-49
2023/09/23 07:42:15;;;;;;;2.03;1.00;;;18.80;66.00;;;;;;5018117;28;21016;-50
2023/09/23 07:44:43;;;;;;;1.60;0.90;;;18.80;65.70;;;;;;5014647;28;20997;-49
2023/09/23 07:47:11;;;;;;;1.93;1.00;;;18.80;65.40;;;;;;5018516;28;20441;-50
2023/09/23 07:49:39;;;;;;;1.37;0.70;;;18.80;66.10;;;;;;5020904;28;21078;-51
2023/09/23 07:52:07;;;;;;;1.90;1.10;;;18.80;66.10;;;;;;5022020;28;20972;-50
2023/09/23 07:54:38;;;;;;;1.50;0.73;;;18.80;65.70;;;;;;5024385;28;21042;-49
2023/09/23 07:57:07;;;;;;;1.37;0.97;;;18.80;66.10;;;;;;5023445;28;21023;-52
2023/09/23 07:59:36;;;;;;;1.80;0.53;;;18.80;66.40;;;;;;5016628;28;20569;-49
2023/09/23 08:02:04;;;;;;;1.93;0.77;;;18.80;66.50;;;;;;5019105;28;20433;-49
2023/09/23 08:04:33;;;;;;;1.03;0.50;;;18.80;66.70;;;;;;5017266;28;20473;-51
2023/09/23 08:07:01;;;;;;;0.90;0.70;;;18.80;66.70;;;;;;5020252;28;20515;-50
2023/09/23 08:09:29;;;;;;;2.00;0.70;;;18.80;66.70;;;;;;5022442;28;20462;-50
2023/09/23 08:11:58;;;;;;;1.10;0.60;;;18.80;66.70;;;;;;5022407;28;20978;-50
2023/09/23 08:14:26;;;;;;;1.10;0.57;;;18.80;66.60;;;;;;5020597;28;21591;-50
2023/09/23 08:16:56;;;;;;;1.43;0.80;;;18.80;66.60;;;;;;5019078;28;20441;-51
2023/09/23 08:19:25;;;;;;;1.10;0.70;;;18.90;66.60;;;;;;5022990;28;20460;-50
2023/09/23 08:21:53;;;;;;;1.77;0.83;;;18.90;66.70;;;;;;5018682;28;20440;-49
2023/09/23 08:24:21;;;;;;;1.20;0.67;;;18.90;66.60;;;;;;5017787;28;20483;-49
2023/09/23 08:26:49;;;;;;;1.53;0.70;;;18.90;66.60;;;;;;5017972;28;20448;-50
2023/09/23 08:29:18;;;;;;;1.37;0.90;;;18.90;66.50;;;;;;5022396;28;20483;-49
2023/09/23 08:31:46;;;;;;;2.53;0.90;;;18.90;66.30;;;;;;5024512;28;20522;-49
2023/09/23 08:34:17;;;;;;;0.97;0.67;;;18.90;66.30;;;;;;5020442;28;20472;-50
2023/09/23 08:36:45;;;;;;;1.17;0.67;;;18.90;66.30;;;;;;5013596;28;20839;-50
2023/09/23 08:39:14;;;;;;;1.90;0.80;;;18.90;66.30;;;;;;5019413;28;20468;-49
2023/09/23 08:41:52;;;;;;;1.07;0.60;;;18.90;66.30;;;;;;5024608;28;20461;-50
2023/09/23 08:44:22;;;;;;;1.43;0.80;;;18.90;66.30;;;;;;5020471;28;20579;-50
2023/09/23 08:46:52;;;;;;;1.50;0.80;;;18.90;66.30;;;;;;5021714;28;21113;-49
2023/09/23 08:49:22;;;;;;;1.40;0.60;;;18.90;66.30;;;;;;5022307;28;21022;-49
2023/09/23 08:51:54;;;;;;;0.90;0.60;;;18.90;66.40;;;;;;5024475;28;20814;-49
2023/09/23 08:54:25;;;;;;;1.63;0.70;;;18.90;66.30;;;;;;5023409;28;20901;-50
2023/09/23 08:56:54;;;;;;;1.40;0.80;;;18.90;66.40;;;;;;5015776;28;20481;-49
2023/09/23 08:59:23;;;;;;;1.57;0.73;;;18.90;66.40;;;;;;5018839;28;21005;-49
2023/09/23 09:01:51;;;;;;;1.03;0.50;;;18.90;66.30;;;;;;5021326;28;20430;-49
2023/09/23 09:04:19;;;;;;;1.07;0.53;;;18.90;66.40;;;;;;5021703;28;20471;-51
2023/09/23 09:06:53;;;;;;;1.73;0.60;;;18.90;66.40;;;;;;5019165;28;20937;-49
2023/09/23 09:09:21;;;;;;;1.30;0.77;;;18.90;66.30;;;;;;5022755;28;20468;-49
2023/09/23 09:11:51;;;;;;;1.30;0.63;;;18.80;66.30;;;;;;5029130;28;20546;-49
2023/09/23 09:14:19;;;;;;;1.73;0.93;;;18.80;66.30;;;;;;5022281;28;20463;-49
2023/09/23 09:16:47;;;;;;;1.17;0.67;;;18.80;66.30;;;;;;5023596;28;20441;-50
2023/09/23 09:19:15;;;;;;;6.23;1.00;;;18.80;66.30;;;;;;5027069;28;21004;-50
2023/09/23 09:21:43;;;;;;;4.70;1.10;;;18.80;66.30;;;;;;5020821;28;20444;-49
2023/09/23 09:24:13;;;;;;;8.40;2.57;;;18.90;66.20;;;;;;5023873;28;20471;-49
2023/09/23 09:26:41;;;;;;;7.47;1.53;;;18.90;66.30;;;;;;5020246;28;20432;-49
2023/09/23 09:29:09;;;;;;;6.37;1.90;;;18.90;66.20;;;;;;5023051;28;20475;-51
2023/09/23 09:31:38;;;;;;;4.10;1.40;;;18.90;63.60;;;;;;5022878;28;20444;-49
2023/09/23 09:34:11;;;;;;;2.70;0.93;;;18.80;63.30;;;;;;5024628;28;20563;-49
2023/09/23 09:36:39;;;;;;;3.37;1.37;;;18.80;64.10;;;;;;5023274;28;20451;-50
2023/09/23 09:39:08;;;;;;;5.10;1.30;;;18.70;64.60;;;;;;5025107;28;21543;-49
2023/09/23 09:41:53;;;;;;;2.40;1.10;;;18.80;64.80;;;;;;5024233;28;20704;-49
2023/09/23 09:44:23;;;;;;;2.80;1.10;;;18.80;64.90;;;;;;5021019;28;20479;-51
2023/09/23 09:46:54;;;;;;;5.83;1.07;;;18.80;65.10;;;;;;5024990;28;20513;-49
2023/09/23 09:49:23;;;;;;;4.47;1.43;;;18.80;65.10;;;;;;5023407;28;20484;-49
2023/09/23 09:51:52;;;;;;;4.90;1.20;;;18.80;65.20;;;;;;5019985;28;20456;-50
2023/09/23 09:54:22;;;;;;;3.73;1.33;;;18.80;65.30;;;;;;5024788;28;20474;-50
2023/09/23 09:56:53;;;;;;;3.63;1.20;;;18.80;65.20;;;;;;5028573;28;20941;-51
2023/09/23 09:59:27;;;;;;;6.25;1.38;;;18.70;64.90;;;;;;5018033;28;20480;-48
2023/09/23 10:01:57;;;;;;;2.00;1.00;;;18.80;64.20;;;;;;5023771;28;20190;-50
2023/09/23 10:04:32;;;;;;;2.50;1.40;;;18.80;64.60;;;;;;5026716;28;20460;-50
2023/09/23 10:07:00;;;;;;;3.00;1.00;;;18.80;64.90;;;;;;5025117;28;20445;-49
2023/09/23 10:09:29;;;;;;;5.80;1.10;;;18.80;64.80;;;;;;5026094;28;20522;-49
2023/09/23 10:11:59;;;;;;;3.50;1.20;;;18.80;65.00;;;;;;5030086;28;20431;-50
2023/09/23 10:14:27;;;;;;;6.10;1.33;;;18.70;65.00;;;;;;5022712;28;20471;-49
2023/09/23 10:17:00;;;;;;;3.33;1.20;;;18.80;65.20;;;;;;5026411;28;20833;-50
2023/09/23 10:19:32;;;;;;;2.73;1.30;;;18.80;65.20;;;;;;5027316;28;20452;-50
2023/09/23 10:22:13;;;;;;;2.13;0.93;;;18.80;65.30;;;;;;5026017;28;20415;-49
2023/09/23 10:24:42;;;;;;;3.77;1.00;;;18.80;65.30;;;;;;5024978;28;20452;-49
2023/09/23 10:27:11;;;;;;;2.63;0.90;;;18.80;65.40;;;;;;5028385;28;20805;-50
2023/09/23 10:29:47;;;;;;;1.90;1.10;;;18.70;65.20;;;;;;5023497;28;21161;-50
2023/09/23 10:32:17;;;;;;;1.67;1.00;;;18.80;65.20;;;;;;5030904;28;20527;-49
2023/09/23 10:34:47;;;;;;;3.37;0.80;;;18.70;65.20;;;;;;5025603;28;20527;-49
2023/09/23 10:37:24;;;;;;;2.73;0.87;;;18.80;65.40;;;;;;5032217;28;20442;-50
2023/09/23 10:39:53;;;;;;;6.00;1.23;;;18.70;65.20;;;;;;5031965;28;20502;-49
2023/09/23 10:42:22;;;;;;;1.17;0.80;;;18.70;65.20;;;;;;5032504;28;20428;-49
2023/09/23 10:44:50;;;;;;;1.27;0.70;;;18.70;65.20;;;;;;5024105;28;20471;-50
2023/09/23 10:47:18;;;;;;;1.10;0.70;;;18.70;65.30;;;;;;5038887;28;20436;-50
2023/09/23 10:49:46;;;;;;;1.47;0.80;;;18.70;65.40;;;;;;5026072;28;20464;-49
2023/09/23 10:52:16;;;;;;;1.43;0.83;;;18.70;65.30;;;;;;5025823;28;20936;-49
2023/09/23 10:54:45;;;;;;;2.40;0.80;;;18.70;65.30;;;;;;5026554;28;20491;-51
2023/09/23 10:57:14;;;;;;;1.27;0.80;;;18.70;65.40;;;;;;5032054;28;20420;-51
2023/09/23 10:59:44;;;;;;;2.60;1.00;;;18.80;64.60;;;;;;5029466;28;20480;-49
2023/09/23 11:02:13;;;;;;;1.47;0.93;;;18.70;64.60;;;;;;5035074;28;20420;-49
2023/09/23 11:04:45;;;;;;;1.57;0.97;;;18.80;65.00;;;;;;5025976;28;20495;-49
2023/09/23 11:07:14;;;;;;;2.63;0.80;;;18.70;64.70;;;;;;5025309;28;20965;-49
2023/09/23 11:09:44;;;;;;;1.80;0.83;;;18.80;64.70;;;;;;5034247;28;20456;-53
2023/09/23 11:12:13;;;;;;;2.93;0.90;;;18.70;64.40;;;;;;5034849;28;20431;-49
2023/09/23 11:14:44;;;;;;;1.73;1.13;;;18.70;63.90;;;;;;5025162;28;21012;-49
2023/09/23 11:17:25;;;;;;;2.50;1.07;;;18.70;64.70;;;;;;5026121;28;20447;-49
2023/09/23 11:19:54;;;;;;;3.33;1.30;;;18.70;64.60;;;;;;5025846;28;20625;-49
2023/09/23 11:22:24;;;;;;;1.93;1.20;;;18.70;64.40;;;;;;5021455;28;20539;-51
2023/09/23 11:24:53;;;;;;;2.30;0.80;;;18.70;64.20;;;;;;5028874;28;20472;-49
2023/09/23 11:27:22;;;;;;;1.20;0.70;;;18.70;64.70;;;;;;5025992;28;20452;-50
2023/09/23 11:29:52;;;;;;;1.40;0.97;;;18.70;64.80;;;;;;5028618;28;20865;-49
2023/09/23 11:32:22;;;;;;;1.87;1.17;;;18.70;64.60;;;;;;5034609;28;20431;-49
2023/09/23 11:34:50;;;;;;;3.90;1.77;;;18.70;64.60;;;;;;5025689;28;20943;-49
2023/09/23 11:37:20;;;;;;;2.03;0.80;;;18.70;64.20;;;;;;5032435;28;20438;-50
2023/09/23 11:39:48;;;;;;;1.87;1.07;;;18.70;64.40;;;;;;5044610;28;20464;-50
2023/09/23 11:42:16;;;;;;;1.97;1.50;;;18.70;64.60;;;;;;5024534;28;20516;-49
2023/09/23 11:44:44;;;;;;;1.30;1.20;;;18.70;64.20;;;;;;5022986;28;20908;-49
2023/09/23 11:47:14;;;;;;;1.97;1.03;;;18.70;64.30;;;;;;5021764;28;20799;-49
2023/09/23 11:49:42;;;;;;;1.67;1.20;;;18.70;64.90;;;;;;5017369;28;20992;-49
2023/09/23 11:52:12;;;;;;;1.53;1.20;;;18.70;64.90;;;;;;5020640;28;20451;-49
2023/09/23 11:54:42;;;;;;;1.07;0.83;;;18.70;64.70;;;;;;5022376;28;20476;-50
2023/09/23 11:57:10;;;;;;;1.50;1.13;;;18.70;65.10;;;;;;5018040;28;20471;-49
2023/09/23 11:59:39;;;;;;;1.40;1.00;;;18.70;64.90;;;;;;5020450;28;20488;-49
2023/09/23 12:02:08;;;;;;;2.53;1.40;;;18.70;64.90;;;;;;5026308;28;20469;-49
2023/09/23 12:04:38;;;;;;;1.83;1.40;;;18.70;64.00;;;;;;5023386;28;21064;-49
2023/09/23 12:07:06;;;;;;;1.57;1.27;;;18.70;64.40;;;;;;5022967;28;20955;-49
2023/09/23 12:09:35;;;;;;;1.83;1.40;;;18.80;64.00;;;;;;5019779;28;20498;-50
2023/09/23 12:12:03;;;;;;;1.10;1.00;;;18.70;64.60;;;;;;5014178;28;20432;-50
2023/09/23 12:14:31;;;;;;;2.63;1.40;;;18.70;64.40;;;;;;5016298;28;20526;-49
2023/09/23 12:17:00;;;;;;;1.60;1.00;;;18.70;64.60;;;;;;5025299;28;20436;-49
2023/09/23 12:19:28;;;;;;;1.47;1.23;;;18.80;64.50;;;;;;5025073;28;20481;-50
2023/09/23 12:21:58;;;;;;;1.10;0.60;;;18.70;64.70;;;;;;5023844;28;20534;-49
2023/09/23 12:24:26;;;;;;;1.53;0.80;;;18.70;65.10;;;;;;5023629;28;21030;-49
2023/09/23 12:26:55;;;;;;;1.53;0.90;;;18.70;65.20;;;;;;5025782;28;20439;-49
2023/09/23 12:29:23;;;;;;;1.00;0.90;;;18.80;66.70;;;;;;5021111;28;20480;-49
2023/09/23 12:31:51;;;;;;;1.40;1.23;;;18.80;64.90;;;;;;5025304;28;20420;-49
2023/09/23 12:34:19;;;;;;;1.50;1.10;;;18.80;64.60;;;;;;5023769;28;20559;-50
2023/09/23 12:36:49;;;;;;;1.57;1.20;;;18.70;65.00;;;;;;5019970;28;20444;-49
2023/09/23 12:39:21;;;;;;;1.33;0.97;;;18.70;64.80;;;;;;5025719;28;20472;-50
2023/09/23 12:41:50;;;;;;;1.60;1.13;;;18.70;65.00;;;;;;5024251;28;20436;-49
2023/09/23 12:44:19;;;;;;;1.63;1.20;;;18.70;64.90;;;;;;5024608;28;20468;-50
2023/09/23 12:46:47;;;;;;;2.30;0.97;;;18.70;64.70;;;;;;5022218;28;20436;-50
2023/09/23 12:49:15;;;;;;;1.43;1.30;;;18.80;65.10;;;;;;5024661;28;20460;-49
2023/09/23 12:51:44;;;;;;;1.87;1.20;;;18.70;65.00;;;;;;5021682;28;20787;-50
2023/09/23 12:54:12;;;;;;;1.93;1.27;;;18.80;65.10;;;;;;5017702;28;20563;-50
2023/09/23 12:56:41;;;;;;;1.10;0.93;;;18.80;65.10;;;;;;5026100;28;21006;-50
2023/09/23 12:59:09;;;;;;;1.77;1.27;;;18.80;65.00;;;;;;5020213;28;20468;-50